createdAt,value
2023-05-19T00:01:05.417Z,101096.06
2023-05-19T00:03:40.299Z,101101.31
2023-05-19T00:06:09.550Z,101098.38
2023-05-19T00:08:39.251Z,101087.34
2023-05-19T00:11:08.081Z,101087.88
2023-05-19T00:13:37.259Z,101087.75
2023-05-19T00:16:05.991Z,101090.50
2023-05-19T00:18:35.759Z,101087.75
2023-05-19T00:21:03.848Z,101085.34
2023-05-19T00:23:32.270Z,101089.47
2023-05-19T00:26:00.420Z,101088.19
2023-05-19T00:28:28.751Z,101092.03
2023-05-19T00:30:57.017Z,101092.91
2023-05-19T00:33:25.556Z,101087.88
2023-05-19T00:35:54.985Z,101090.94
2023-05-19T00:38:23.399Z,101095.09
2023-05-19T00:40:51.501Z,101086.59
2023-05-19T00:43:19.813Z,101097.16
2023-05-19T00:45:48.045Z,101092.59
2023-05-19T00:48:16.503Z,101098.75
2023-05-19T00:50:44.765Z,101108.03
2023-05-19T00:53:14.782Z,101105.81
2023-05-19T00:55:43.694Z,101100.00
2023-05-19T00:58:13.792Z,101091.63
2023-05-19T01:00:42.649Z,101090.84
2023-05-19T01:03:12.165Z,101101.53
2023-05-19T01:05:44.667Z,101102.19
2023-05-19T01:08:14.622Z,101088.41
2023-05-19T01:10:42.789Z,101093.72
2023-05-19T01:13:11.808Z,101086.91
2023-05-19T01:15:48.633Z,101082.50
2023-05-19T01:18:22.772Z,101075.13
2023-05-19T01:20:57.946Z,101068.69
2023-05-19T01:23:36.495Z,101061.47
2023-05-19T01:26:32.834Z,101066.41
2023-05-19T01:29:09.243Z,101062.16
2023-05-19T01:31:40.031Z,101071.28
2023-05-19T01:34:08.815Z,101068.47
2023-05-19T01:36:37.207Z,101071.84
2023-05-19T01:39:05.661Z,101069.38
2023-05-19T01:41:34.745Z,101063.59
2023-05-19T01:44:03.408Z,101071.22
2023-05-19T01:46:31.525Z,101074.25
2023-05-19T01:49:01.218Z,101074.75
2023-05-19T01:51:29.335Z,101081.56
2023-05-19T01:53:57.617Z,101081.28
2023-05-19T01:56:33.973Z,101084.66
2023-05-19T01:59:12.033Z,101086.78
2023-05-19T02:01:47.637Z,101085.47
2023-05-19T02:04:23.708Z,101087.25
2023-05-19T02:07:02.178Z,101087.88
2023-05-19T02:09:43.351Z,101091.28
2023-05-19T02:12:18.105Z,101084.41
2023-05-19T02:14:49.003Z,101090.47
2023-05-19T02:17:19.483Z,101084.38
2023-05-19T02:19:49.262Z,101092.31
2023-05-19T02:22:17.338Z,101089.97
2023-05-19T02:24:46.736Z,101083.88
2023-05-19T02:27:14.739Z,101088.94
2023-05-19T02:29:44.539Z,101084.56
2023-05-19T02:32:12.749Z,101086.66
2023-05-19T02:34:42.138Z,101086.69
2023-05-19T02:37:12.450Z,101087.06
2023-05-19T02:39:40.743Z,101084.69
2023-05-19T02:42:09.214Z,101087.72
2023-05-19T02:44:37.592Z,101082.28
2023-05-19T02:47:05.942Z,101077.03
2023-05-19T02:49:36.017Z,101078.22
2023-05-19T02:52:04.403Z,101082.38
2023-05-19T02:54:35.328Z,101073.91
2023-05-19T02:57:03.596Z,101069.50
2023-05-19T02:59:32.257Z,101069.31
2023-05-19T03:02:01.450Z,101072.72
2023-05-19T03:04:30.491Z,101074.75
2023-05-19T03:06:58.602Z,101078.84
2023-05-19T03:09:27.052Z,101075.50
2023-05-19T03:11:56.452Z,101071.88
2023-05-19T03:14:24.810Z,101074.00
2023-05-19T03:16:53.308Z,101077.59
2023-05-19T03:19:21.800Z,101074.88
2023-05-19T03:21:49.909Z,101078.78
2023-05-19T03:24:18.288Z,101084.78
2023-05-19T03:26:47.701Z,101080.34
2023-05-19T03:29:17.628Z,101084.97
2023-05-19T03:31:46.651Z,101089.66
2023-05-19T03:34:16.699Z,101080.19
2023-05-19T03:36:45.078Z,101089.69
2023-05-19T03:39:17.147Z,101086.00
2023-05-19T03:41:46.684Z,101093.31
2023-05-19T03:44:14.961Z,101097.09
2023-05-19T03:46:44.504Z,101091.53
2023-05-19T03:49:44.759Z,101095.47
2023-05-19T03:52:31.535Z,101102.31
2023-05-19T03:55:21.361Z,101114.81
2023-05-19T03:57:49.625Z,101101.13
2023-05-19T04:00:18.612Z,101101.69
2023-05-19T04:02:48.054Z,101110.28
2023-05-19T04:05:16.874Z,101102.56
2023-05-19T04:07:46.607Z,101111.03
2023-05-19T04:10:15.075Z,101102.59
2023-05-19T04:12:43.120Z,101106.19
2023-05-19T04:15:12.547Z,101111.91
2023-05-19T04:17:41.880Z,101099.59
2023-05-19T04:20:13.564Z,101106.44
2023-05-19T04:22:41.676Z,101118.03
2023-05-19T04:25:10.302Z,101107.09
2023-05-19T04:27:39.531Z,101108.84
2023-05-19T04:30:09.382Z,101109.41
2023-05-19T04:32:39.653Z,101114.34
2023-05-19T04:35:08.728Z,101124.31
2023-05-19T04:37:39.076Z,101124.13
2023-05-19T04:40:11.066Z,101119.63
2023-05-19T04:42:41.503Z,101120.13
2023-05-19T04:45:12.367Z,101122.03
2023-05-19T04:47:43.040Z,101121.41
2023-05-19T04:50:12.869Z,101126.56
2023-05-19T04:52:42.581Z,101129.63
2023-05-19T04:55:13.067Z,101133.97
2023-05-19T04:57:41.816Z,101131.31
2023-05-19T05:00:13.708Z,101132.50
2023-05-19T05:03:08.285Z,101130.88
2023-05-19T05:05:36.825Z,101132.03
2023-05-19T05:08:07.071Z,101129.28
2023-05-19T05:10:39.731Z,101131.88
2023-05-19T05:13:10.507Z,101127.91
2023-05-19T05:15:44.109Z,101128.53
2023-05-19T05:18:13.040Z,101122.84
2023-05-19T05:20:42.520Z,101127.38
2023-05-19T05:23:14.513Z,101123.78
2023-05-19T05:25:45.779Z,101126.00
2023-05-19T05:28:15.609Z,101127.88
2023-05-19T05:30:44.904Z,101124.78
2023-05-19T05:33:15.057Z,101127.38
2023-05-19T05:35:43.539Z,101121.16
2023-05-19T05:38:14.989Z,101122.78
2023-05-19T05:40:43.895Z,101123.50
2023-05-19T05:43:11.997Z,101123.00
2023-05-19T05:45:47.067Z,101120.25
2023-05-19T05:48:16.042Z,101115.00
2023-05-19T05:50:45.407Z,101113.06
2023-05-19T05:53:19.708Z,101116.84
2023-05-19T05:55:51.124Z,101107.25
2023-05-19T05:58:21.210Z,101117.59
2023-05-19T06:00:51.451Z,101115.56
2023-05-19T06:03:21.979Z,101110.31
2023-05-19T06:05:50.674Z,101114.97
2023-05-19T06:08:20.821Z,101114.84
2023-05-19T06:10:49.141Z,101112.34
2023-05-19T06:13:22.518Z,101111.81
2023-05-19T06:15:51.944Z,101114.97
2023-05-19T06:18:31.800Z,101115.56
2023-05-19T06:21:00.521Z,101110.16
2023-05-19T06:23:31.551Z,101118.69
2023-05-19T06:26:00.805Z,101112.25
2023-05-19T06:28:28.870Z,101108.03
2023-05-19T06:30:57.559Z,101108.31
2023-05-19T06:33:44.116Z,101110.47
2023-05-19T06:36:12.432Z,101124.50
2023-05-19T06:38:44.437Z,101120.97
2023-05-19T06:41:13.648Z,101122.22
2023-05-19T06:43:43.241Z,101121.16
2023-05-19T06:46:17.646Z,101113.06
2023-05-19T06:48:46.151Z,101119.09
2023-05-19T06:51:15.628Z,101116.81
2023-05-19T06:53:45.984Z,101117.47
2023-05-19T06:56:14.955Z,101111.97
2023-05-19T06:58:43.611Z,101110.13
2023-05-19T07:01:12.760Z,101114.84
2023-05-19T07:03:46.703Z,101115.44
2023-05-19T07:06:16.160Z,101111.81
2023-05-19T07:08:45.920Z,101113.16
2023-05-19T07:11:14.535Z,101113.47
2023-05-19T07:13:43.525Z,101106.63
2023-05-19T07:16:12.427Z,101111.94
2023-05-19T07:18:40.989Z,101106.06
2023-05-19T07:21:09.332Z,101101.28
2023-05-19T07:23:39.619Z,101090.09
2023-05-19T07:26:09.569Z,101096.47
2023-05-19T07:28:39.876Z,101093.31
2023-05-19T07:31:10.159Z,101083.16
2023-05-19T07:33:38.183Z,101084.50
2023-05-19T07:36:06.651Z,101083.69
2023-05-19T07:38:35.698Z,101073.03
2023-05-19T07:41:04.803Z,101074.66
2023-05-19T07:43:34.213Z,101073.03
2023-05-19T07:46:02.559Z,101073.03
2023-05-19T07:48:30.633Z,101067.16
2023-05-19T07:50:58.873Z,101074.66
2023-05-19T07:53:27.920Z,101067.69
2023-05-19T07:55:58.404Z,101063.94
2023-05-19T07:58:27.945Z,101060.22
2023-05-19T08:00:59.374Z,101061.25
2023-05-19T08:03:27.629Z,101067.44
2023-05-19T08:05:56.322Z,101066.06
2023-05-19T08:08:24.491Z,101059.91
2023-05-19T08:10:52.765Z,101062.31
2023-05-19T08:13:20.895Z,101056.44
2023-05-19T08:15:49.212Z,101061.25
2023-05-19T08:18:18.581Z,101065.22
2023-05-19T08:20:46.982Z,101066.53
2023-05-19T08:23:14.986Z,101060.72
2023-05-19T08:25:43.404Z,101044.66
2023-05-19T08:28:11.552Z,101052.66
2023-05-19T08:30:39.922Z,101050.75
2023-05-19T08:33:08.329Z,101054.41
2023-05-19T08:35:38.005Z,101053.09
2023-05-19T08:38:06.263Z,101046.81
2023-05-19T08:40:34.850Z,101048.09
2023-05-19T08:43:03.126Z,101047.09
2023-05-19T08:45:31.791Z,101040.06
2023-05-19T08:48:00.264Z,101044.97
2023-05-19T08:50:32.066Z,101040.56
2023-05-19T08:53:05.689Z,101030.28
2023-05-19T08:55:36.380Z,101029.53
2023-05-19T08:58:05.424Z,101025.16
2023-05-19T09:00:34.107Z,101018.41
2023-05-19T09:03:17.587Z,101019.97
2023-05-19T09:05:47.016Z,101016.28
2023-05-19T09:08:16.498Z,101014.97
2023-05-19T09:10:44.988Z,101013.88
2023-05-19T09:13:13.084Z,101012.03
2023-05-19T09:15:43.425Z,101021.00
2023-05-19T09:18:12.752Z,101017.69
2023-05-19T09:20:42.483Z,101003.06
2023-05-19T09:23:14.786Z,101006.63
2023-05-19T09:25:51.361Z,101001.50
2023-05-19T09:28:27.177Z,101003.34
2023-05-19T09:31:02.401Z,100995.22
2023-05-19T09:33:31.395Z,100991.81
2023-05-19T09:35:59.759Z,100987.31
2023-05-19T09:38:29.326Z,100977.03
2023-05-19T09:40:59.875Z,100984.59
2023-05-19T09:43:28.545Z,100980.75
2023-05-19T09:46:00.191Z,100983.44
2023-05-19T09:48:28.665Z,100985.44
2023-05-19T09:50:57.887Z,100986.72
2023-05-19T09:53:26.415Z,100976.94
2023-05-19T09:55:57.506Z,100986.38
2023-05-19T09:58:27.878Z,100984.56
2023-05-19T10:00:56.786Z,100973.97
2023-05-19T10:03:26.401Z,100980.66
2023-05-19T10:05:54.833Z,100977.31
2023-05-19T10:08:24.356Z,100966.09
2023-05-19T10:10:52.850Z,100964.69
2023-05-19T10:13:22.569Z,100971.31
2023-05-19T10:15:58.669Z,100968.00
2023-05-19T10:18:29.248Z,100960.53
2023-05-19T10:20:58.819Z,100965.31
2023-05-19T10:23:27.097Z,100958.13
2023-05-19T10:25:57.716Z,100945.06
2023-05-19T10:28:28.097Z,100939.28
2023-05-19T10:30:59.998Z,100943.88
2023-05-19T10:33:33.993Z,100945.00
2023-05-19T10:36:17.478Z,100951.75
2023-05-19T10:38:50.051Z,100945.41
2023-05-19T10:41:32.166Z,100941.41
2023-05-19T10:44:06.521Z,100939.97
2023-05-19T10:46:36.466Z,100946.34
2023-05-19T10:49:04.827Z,100949.03
2023-05-19T10:51:33.339Z,100951.72
2023-05-19T10:54:02.840Z,100945.28
2023-05-19T10:56:33.835Z,100941.31
2023-05-19T10:59:02.400Z,100939.31
2023-05-19T11:01:33.270Z,100941.16
2023-05-19T11:04:07.582Z,100933.69
2023-05-19T11:06:37.733Z,100928.53
2023-05-19T11:09:13.305Z,100933.88
2023-05-19T11:11:47.619Z,100934.81
2023-05-19T11:14:16.876Z,100930.06
2023-05-19T11:16:48.011Z,100927.81
2023-05-19T11:19:21.500Z,100927.91
2023-05-19T11:21:52.394Z,100919.75
2023-05-19T11:24:37.258Z,100920.91
2023-05-19T11:27:20.000Z,100914.44
2023-05-19T11:29:48.421Z,100919.72
2023-05-19T11:32:16.884Z,100916.53
2023-05-19T11:34:46.644Z,100919.88
2023-05-19T11:37:14.945Z,100916.25
2023-05-19T11:39:43.730Z,100917.84
2023-05-19T11:42:12.090Z,100909.91
2023-05-19T11:44:41.132Z,100910.28
2023-05-19T11:47:10.213Z,100909.03
2023-05-19T11:49:38.277Z,100910.09
2023-05-19T11:52:08.141Z,100914.38
2023-05-19T11:54:37.299Z,100911.31
2023-05-19T11:57:06.380Z,100903.88
2023-05-19T11:59:36.434Z,100902.59
2023-05-19T12:02:17.670Z,100901.94
2023-05-19T12:04:45.965Z,100903.44
2023-05-19T12:07:18.336Z,100909.03
2023-05-19T12:09:47.258Z,100905.66
2023-05-19T12:12:17.491Z,100907.28
2023-05-19T12:14:47.612Z,100903.72
2023-05-19T12:17:17.522Z,100899.34
2023-05-19T12:19:47.119Z,100906.47
2023-05-19T12:22:18.355Z,100902.84
2023-05-19T12:24:47.338Z,100909.13
2023-05-19T12:27:19.327Z,100903.41
2023-05-19T12:29:50.753Z,100895.88
2023-05-19T12:32:19.621Z,100902.84
2023-05-19T12:34:47.815Z,100901.03
2023-05-19T12:37:17.625Z,100899.66
2023-05-19T12:39:45.916Z,100910.88
2023-05-19T12:42:14.199Z,100894.03
2023-05-19T12:44:46.594Z,100900.50
2023-05-19T12:47:16.505Z,100903.22
2023-05-19T12:49:57.297Z,100900.16
2023-05-19T12:52:27.799Z,100902.47
2023-05-19T12:54:59.925Z,100895.13
2023-05-19T12:57:29.098Z,100896.84
2023-05-19T13:00:01.723Z,100898.25
2023-05-19T13:02:31.081Z,100889.59
2023-05-19T13:04:59.611Z,100890.94
2023-05-19T13:07:29.387Z,100888.38
2023-05-19T13:09:57.682Z,100894.88
2023-05-19T13:12:26.213Z,100896.84
2023-05-19T13:14:55.898Z,100896.06
2023-05-19T13:17:24.586Z,100899.66
2023-05-19T13:19:52.947Z,100895.38
2023-05-19T13:22:21.538Z,100896.03
2023-05-19T13:24:53.160Z,100888.53
2023-05-19T13:27:22.625Z,100893.00
2023-05-19T13:29:50.692Z,100897.06
2023-05-19T13:32:19.125Z,100906.13
2023-05-19T13:34:47.310Z,100901.38
2023-05-19T13:37:15.657Z,100890.66
2023-05-19T13:39:43.789Z,100895.84
2023-05-19T13:42:13.534Z,100898.25
2023-05-19T13:44:41.693Z,100901.03
2023-05-19T13:47:10.072Z,100899.25
2023-05-19T13:49:38.181Z,100895.81
2023-05-19T13:52:07.784Z,100898.41
2023-05-19T13:54:35.921Z,100901.56
2023-05-19T13:57:04.395Z,100899.28
2023-05-19T13:59:35.140Z,100903.88
2023-05-19T14:02:06.428Z,100907.47
2023-05-19T14:04:37.315Z,100916.66
2023-05-19T14:07:06.239Z,100906.75
2023-05-19T14:09:34.892Z,100910.84
2023-05-19T14:12:03.314Z,100912.94
2023-05-19T14:14:31.465Z,100913.25
2023-05-19T14:17:01.090Z,100909.06
2023-05-19T14:19:30.417Z,100901.31
2023-05-19T14:21:58.750Z,100905.09
2023-05-19T14:24:26.928Z,100902.66
2023-05-19T14:26:55.202Z,100900.47
2023-05-19T14:29:23.227Z,100898.25
2023-05-19T14:31:51.548Z,100899.50
2023-05-19T14:34:21.199Z,100889.63
2023-05-19T14:36:49.620Z,100884.00
2023-05-19T14:39:17.682Z,100885.56
2023-05-19T14:41:46.094Z,100878.09
2023-05-19T14:44:14.122Z,100875.94
2023-05-19T14:46:42.420Z,100873.31
2023-05-19T14:49:10.713Z,100875.78
2023-05-19T14:51:40.360Z,100875.63
2023-05-19T14:54:08.465Z,100873.91
2023-05-19T14:56:36.931Z,100872.72
2023-05-19T14:59:05.344Z,100868.97
2023-05-19T15:01:33.643Z,100873.25
2023-05-19T15:04:01.869Z,100866.34
2023-05-19T15:06:30.581Z,100867.34
2023-05-19T15:08:59.961Z,100872.38
2023-05-19T15:11:28.296Z,100871.16
2023-05-19T15:13:56.328Z,100868.06
2023-05-19T15:16:24.760Z,100860.81
2023-05-19T15:18:53.258Z,100858.69
2023-05-19T15:21:21.862Z,100859.94
2023-05-19T15:23:49.951Z,100856.44
2023-05-19T15:26:19.570Z,100856.38
2023-05-19T15:28:50.634Z,100861.81
2023-05-19T15:31:18.985Z,100857.38
2023-05-19T15:33:47.106Z,100843.53
2023-05-19T15:36:16.541Z,100845.00
2023-05-19T15:38:44.847Z,100853.34
2023-05-19T15:41:13.145Z,100846.97
2023-05-19T15:43:42.576Z,100848.28
2023-05-19T15:46:13.073Z,100842.56
2023-05-19T15:48:41.148Z,100844.22
2023-05-19T15:51:09.483Z,100845.06
2023-05-19T15:53:37.571Z,100841.09
2023-05-19T15:56:06.332Z,100842.16
2023-05-19T15:58:34.406Z,100840.31
2023-05-19T16:01:04.271Z,100842.06
2023-05-19T16:03:32.680Z,100825.13
2023-05-19T16:06:01.584Z,100840.75
2023-05-19T16:08:29.720Z,100840.91
2023-05-19T16:10:58.029Z,100834.63
2023-05-19T16:13:26.066Z,100830.53
2023-05-19T16:15:54.406Z,100833.94
2023-05-19T16:18:23.970Z,100827.25
2023-05-19T16:20:52.505Z,100828.13
2023-05-19T16:23:20.524Z,100829.34
2023-05-19T16:25:49.379Z,100813.56
2023-05-19T16:28:17.644Z,100811.81
2023-05-19T16:30:46.060Z,100820.25
2023-05-19T16:33:14.091Z,100816.78
2023-05-19T16:35:43.805Z,100814.19
2023-05-19T16:38:11.900Z,100811.59
2023-05-19T16:40:40.522Z,100801.44
2023-05-19T16:43:08.694Z,100804.22
2023-05-19T16:45:37.111Z,100798.63
2023-05-19T16:48:05.520Z,100796.44
2023-05-19T16:50:34.031Z,100795.25
2023-05-19T16:53:03.743Z,100789.66
2023-05-19T16:55:32.055Z,100787.19
2023-05-19T16:58:00.510Z,100791.84
2023-05-19T17:00:29.746Z,100786.66
2023-05-19T17:02:57.920Z,100785.97
2023-05-19T17:05:27.171Z,100782.50
2023-05-19T17:07:55.250Z,100776.91
2023-05-19T17:10:24.889Z,100780.03
2023-05-19T17:12:53.013Z,100781.81
2023-05-19T17:15:21.287Z,100785.81
2023-05-19T17:17:49.372Z,100776.84
2023-05-19T17:20:17.822Z,100771.31
2023-05-19T17:22:45.804Z,100774.91
2023-05-19T17:25:14.116Z,100770.94
2023-05-19T17:27:43.507Z,100774.47
2023-05-19T17:30:12.847Z,100779.50
2023-05-19T17:32:41.114Z,100779.31
2023-05-19T17:35:09.794Z,100782.09
2023-05-19T17:37:37.955Z,100785.88
2023-05-19T17:40:07.617Z,100782.50
2023-05-19T17:42:35.675Z,100784.50
2023-05-19T17:45:07.471Z,100778.91
2023-05-19T17:47:35.597Z,100789.47
2023-05-19T17:50:04.150Z,100781.09
2023-05-19T17:52:33.032Z,100781.31
2023-05-19T17:55:01.969Z,100776.72
2023-05-19T17:57:32.014Z,100781.69
2023-05-19T18:00:01.220Z,100777.50
2023-05-19T18:02:31.494Z,100777.91
2023-05-19T18:05:01.007Z,100776.91
2023-05-19T18:07:29.313Z,100778.81
2023-05-19T18:09:57.852Z,100772.84
2023-05-19T18:12:26.164Z,100779.00
2023-05-19T18:14:54.402Z,100776.22
2023-05-19T18:17:22.442Z,100774.94
2023-05-19T18:19:52.044Z,100771.53
2023-05-19T18:22:20.208Z,100775.34
2023-05-19T18:24:48.489Z,100775.28
2023-05-19T18:27:16.546Z,100775.88
2023-05-19T18:29:44.797Z,100767.63
2023-05-19T18:32:14.250Z,100769.09
2023-05-19T18:34:42.774Z,100772.09
2023-05-19T18:37:12.209Z,100769.66
2023-05-19T18:39:40.499Z,100766.47
2023-05-19T18:42:08.489Z,100770.09
2023-05-19T18:44:36.788Z,100770.75
2023-05-19T18:47:05.017Z,100762.47
2023-05-19T18:49:33.325Z,100768.41
2023-05-19T18:52:01.497Z,100769.56
2023-05-19T18:54:32.450Z,100761.50
2023-05-19T18:57:01.266Z,100776.16
2023-05-19T18:59:29.568Z,100765.47
2023-05-19T19:01:57.613Z,100772.25
2023-05-19T19:04:26.033Z,100767.81
2023-05-19T19:06:54.204Z,100768.59
2023-05-19T19:09:22.556Z,100772.09
2023-05-19T19:11:51.969Z,100777.84
2023-05-19T19:14:20.309Z,100775.59
2023-05-19T19:16:48.409Z,100781.09
2023-05-19T19:19:16.739Z,100776.81
2023-05-19T19:21:44.770Z,100776.75
2023-05-19T19:24:13.569Z,100781.16
2023-05-19T19:26:41.586Z,100778.59
2023-05-19T19:29:11.150Z,100784.88
2023-05-19T19:31:39.503Z,100783.63
2023-05-19T19:34:09.361Z,100787.16
2023-05-19T19:36:37.430Z,100780.66
2023-05-19T19:39:05.676Z,100781.69
2023-05-19T19:41:33.775Z,100779.94
2023-05-19T19:44:02.089Z,100779.56
2023-05-19T19:46:31.565Z,100785.28
2023-05-19T19:49:00.321Z,100783.47
2023-05-19T19:51:28.398Z,100787.91
2023-05-19T19:53:56.883Z,100788.94
2023-05-19T19:56:26.138Z,100796.03
2023-05-19T19:58:56.778Z,100792.72
2023-05-19T20:01:27.565Z,100791.78
2023-05-19T20:03:57.964Z,100793.69
2023-05-19T20:06:26.136Z,100789.44
2023-05-19T20:08:54.368Z,100793.81
2023-05-19T20:11:24.376Z,100793.09
2023-05-19T20:13:53.021Z,100794.81
2023-05-19T20:16:21.174Z,100790.59
2023-05-19T20:18:49.514Z,100780.91
2023-05-19T20:21:18.967Z,100790.03
2023-05-19T20:23:47.296Z,100779.66
2023-05-19T20:26:15.916Z,100788.63
2023-05-19T20:28:44.308Z,100790.72
2023-05-19T20:31:12.326Z,100783.78
2023-05-19T20:33:40.635Z,100783.03
2023-05-19T20:36:08.749Z,100770.78
2023-05-19T20:38:38.379Z,100776.44
2023-05-19T20:41:06.447Z,100777.16
2023-05-19T20:43:35.144Z,100764.72
2023-05-19T20:46:03.768Z,100777.06
2023-05-19T20:48:32.260Z,100771.69
2023-05-19T20:51:00.537Z,100772.47
2023-05-19T20:53:28.831Z,100776.25
2023-05-19T20:55:58.234Z,100773.69
2023-05-19T20:58:30.065Z,100770.09
2023-05-19T21:00:58.335Z,100775.13
2023-05-19T21:03:27.157Z,100776.75
2023-05-19T21:05:55.535Z,100774.06
2023-05-19T21:08:24.207Z,100773.91
2023-05-19T21:10:52.603Z,100775.09
2023-05-19T21:13:22.287Z,100767.81
2023-05-19T21:15:50.296Z,100771.63
2023-05-19T21:18:18.558Z,100774.81
2023-05-19T21:20:46.682Z,100772.31
2023-05-19T21:23:14.965Z,100771.72
2023-05-19T21:25:45.200Z,100772.25
2023-05-19T21:28:13.868Z,100767.38
2023-05-19T21:30:44.341Z,100775.94
2023-05-19T21:33:12.758Z,100761.00
2023-05-19T21:35:40.813Z,100769.66
2023-05-19T21:38:22.698Z,100768.66
2023-05-19T21:40:52.769Z,100772.38
2023-05-19T21:43:21.720Z,100772.94
2023-05-19T21:45:51.120Z,100776.69
2023-05-19T21:48:19.489Z,100774.69
2023-05-19T21:50:47.553Z,100770.88
2023-05-19T21:53:15.799Z,100775.25
2023-05-19T21:55:44.391Z,100767.44
2023-05-19T21:58:12.830Z,100766.06
2023-05-19T22:00:40.908Z,100769.88
2023-05-19T22:03:10.633Z,100769.94
2023-05-19T22:05:39.072Z,100774.81
2023-05-19T22:08:07.353Z,100776.94
2023-05-19T22:10:37.074Z,100774.88
2023-05-19T22:13:05.534Z,100772.78
2023-05-19T22:15:33.508Z,100777.06
2023-05-19T22:18:01.839Z,100775.00
2023-05-19T22:20:31.616Z,100769.09
2023-05-19T22:23:01.139Z,100762.63
2023-05-19T22:25:29.146Z,100764.19
2023-05-19T22:27:57.642Z,100766.91
2023-05-19T22:30:25.706Z,100778.22
2023-05-19T22:32:54.121Z,100772.53
2023-05-19T22:35:22.664Z,100771.16
2023-05-19T22:37:52.255Z,100768.25
2023-05-19T22:40:20.530Z,100782.50
2023-05-19T22:42:48.780Z,100763.66
2023-05-19T22:45:16.781Z,100768.47
2023-05-19T22:47:45.133Z,100776.28
2023-05-19T22:50:13.205Z,100770.16
2023-05-19T22:52:41.677Z,100765.03
2023-05-19T22:55:11.339Z,100764.28
2023-05-19T22:57:39.697Z,100767.53
2023-05-19T23:00:09.644Z,100767.00
2023-05-19T23:02:37.990Z,100761.09
2023-05-19T23:05:06.955Z,100760.53
2023-05-19T23:07:35.387Z,100761.59
2023-05-19T23:10:05.816Z,100762.19
2023-05-19T23:12:35.674Z,100760.63
2023-05-19T23:15:03.839Z,100760.13
2023-05-19T23:17:32.901Z,100758.53
2023-05-19T23:20:00.948Z,100754.56
2023-05-19T23:22:29.249Z,100752.69
2023-05-19T23:24:57.302Z,100744.59
2023-05-19T23:27:25.592Z,100744.03
2023-05-19T23:29:55.052Z,100732.22
2023-05-19T23:32:23.510Z,100729.53
2023-05-19T23:34:51.512Z,100727.75
2023-05-19T23:37:19.830Z,100730.09
2023-05-19T23:39:47.808Z,100723.19
2023-05-19T23:42:16.119Z,100718.88
2023-05-19T23:44:44.143Z,100718.88
2023-05-19T23:47:13.728Z,100718.88
2023-05-19T23:49:41.763Z,100716.19
2023-05-19T23:52:10.015Z,100714.13
2023-05-19T23:54:38.075Z,100714.66
2023-05-19T23:57:06.750Z,100714.09
2023-05-19T23:59:34.989Z,100720.50
